GMFF/FEZ METAR and TAF weather

Enter ICAO airport designator
Station Type Date Time Source
GMFF METAR 2019/08/21 23:00 UTC NOAA

GMFF 212300Z 15005KT 100V220 CAVOK 23/11 Q1018 NOSIG


Station Type Date Time Source
GMFF Decoded METAR 2019/08/21 23:00 UTC NOAA

Station name not available
Aug 21, 2019 - 07:00 PM EDT / 2019.08.21 2300 UTC
Wind: from the SSE (150 degrees) at 6 MPH (5 KT) (direction variable):0
Visibility: greater than 7 mile(s):0
Temperature: 73 F (23 C)
Dew Point: 51 F (11 C)
Relative Humidity: 46%
Pressure (altimeter): 30.06 in. Hg (1018 hPa)
ob: GMFF 212300Z 15005KT 100V220 CAVOK 23/11 Q1018 NOSIG
cycle: 23

Station Type Date Time Source
GMFF TAF 2019/08/21 18:21 UTC NOAA

TAF TAF GMFF 211700Z 2118/2224 32010KT 9999 SCT030 SCT100
BECMG 2122/2124 32006KT CAVOK PROB40
TEMPO 2200/2208 06006KT 6000 SCT010 SCT100
BECMG 2210/2213 02010KT FEW033 SCT100
BECMG 2214/2217 32010KT SCT033 FEW040CB SCT100

Example: see airport list